createdAt,value
2022-10-02T00:01:05.202Z,29.05
2022-10-02T00:03:38.745Z,43.67
2022-10-02T00:06:14.848Z,45.63
2022-10-02T00:08:42.199Z,30.45
2022-10-02T00:11:17.748Z,31.70
2022-10-02T00:13:57.622Z,33.55
2022-10-02T00:16:41.566Z,36.88
2022-10-02T00:19:13.957Z,24.65
2022-10-02T00:21:56.699Z,37.88
2022-10-02T00:25:06.926Z,27.20
2022-10-02T00:27:39.014Z,18.58
2022-10-02T00:30:06.355Z,27.95
2022-10-02T00:32:49.986Z,22.38
2022-10-02T00:35:48.735Z,35.15
2022-10-02T00:38:37.283Z,29.63
2022-10-02T00:41:28.267Z,30.38
2022-10-02T00:44:38.921Z,30.90
2022-10-02T00:47:35.670Z,32.13
2022-10-02T00:50:46.684Z,21.08
2022-10-02T00:53:40.738Z,28.17
2022-10-02T00:56:41.395Z,23.83
2022-10-02T00:59:20.040Z,20.13
2022-10-02T01:01:58.706Z,21.38
2022-10-02T01:04:37.662Z,19.08
2022-10-02T01:07:07.836Z,34.25
2022-10-02T01:09:34.913Z,28.98
2022-10-02T01:12:01.959Z,28.20
2022-10-02T01:14:36.486Z,34.50
2022-10-02T01:17:05.318Z,30.52
2022-10-02T01:19:38.972Z,31.40
2022-10-02T01:22:15.705Z,24.15
2022-10-02T01:24:48.520Z,18.23
2022-10-02T01:27:15.860Z,28.73
2022-10-02T01:29:46.198Z,31.33
2022-10-02T01:32:12.964Z,38.00
2022-10-02T01:34:39.932Z,28.23
2022-10-02T01:37:07.530Z,24.52
2022-10-02T01:39:34.921Z,32.03
2022-10-02T01:42:01.678Z,26.08
2022-10-02T01:44:30.004Z,19.67
2022-10-02T01:47:08.129Z,37.05
2022-10-02T01:50:06.441Z,31.70
2022-10-02T01:52:46.426Z,27.58
2022-10-02T01:55:40.941Z,31.67
2022-10-02T01:58:36.761Z,42.78
2022-10-02T02:04:03.359Z,32.70
2022-10-02T02:06:38.029Z,32.58
2022-10-02T02:09:15.700Z,36.13
2022-10-02T02:11:54.908Z,35.15
2022-10-02T02:14:31.313Z,39.35
2022-10-02T02:17:31.510Z,26.35
2022-10-02T02:20:06.250Z,41.83
2022-10-02T02:22:43.299Z,37.80
2022-10-02T02:25:22.120Z,28.70
2022-10-02T02:27:57.072Z,42.33
2022-10-02T02:32:58.539Z,44.72
2022-10-02T02:35:35.643Z,40.08
2022-10-02T02:38:10.058Z,37.53
2022-10-02T02:40:40.238Z,48.47
2022-10-02T02:43:12.332Z,57.78
2022-10-02T02:46:08.906Z,46.58
2022-10-02T02:48:44.881Z,51.45
2022-10-02T02:51:19.080Z,38.47
2022-10-02T02:53:53.888Z,43.67
2022-10-02T02:56:21.660Z,49.30
2022-10-02T02:59:01.415Z,51.95
2022-10-02T03:01:28.295Z,50.42
2022-10-02T03:03:57.365Z,52.95
2022-10-02T03:06:37.802Z,50.92
2022-10-02T03:09:07.328Z,58.22
2022-10-02T03:12:19.675Z,55.42
2022-10-02T03:15:13.654Z,58.50
2022-10-02T03:17:49.497Z,52.28
2022-10-02T03:20:23.564Z,59.70
2022-10-02T03:22:54.403Z,46.33
2022-10-02T03:25:24.257Z,53.58
2022-10-02T03:28:50.623Z,50.03
2022-10-02T03:31:14.453Z,53.38
2022-10-02T03:33:42.013Z,58.70
2022-10-02T03:36:12.046Z,51.60
2022-10-02T03:38:39.412Z,52.10
2022-10-02T03:41:06.297Z,55.67
2022-10-02T03:43:32.993Z,64.15
2022-10-02T03:45:59.709Z,44.20
2022-10-02T03:48:26.446Z,55.88
2022-10-02T03:50:53.869Z,56.92
2022-10-02T03:53:24.437Z,56.50
2022-10-02T03:56:03.150Z,50.38
2022-10-02T03:58:29.986Z,58.38
2022-10-02T04:01:07.767Z,49.58
2022-10-02T04:03:47.576Z,56.05
2022-10-02T04:06:37.274Z,57.00
2022-10-02T04:09:12.216Z,55.65
2022-10-02T04:11:43.762Z,52.53
2022-10-02T04:14:20.588Z,46.72
2022-10-02T04:17:10.101Z,51.35
2022-10-02T04:19:49.423Z,56.10
2022-10-02T04:22:24.301Z,53.03
2022-10-02T04:25:09.179Z,57.28
2022-10-02T04:28:01.472Z,53.03
2022-10-02T04:30:30.117Z,56.30
2022-10-02T04:33:17.441Z,46.72
2022-10-02T04:36:00.241Z,51.95
2022-10-02T04:39:04.861Z,50.47
2022-10-02T04:41:44.070Z,62.15
2022-10-02T04:44:48.701Z,50.78
2022-10-02T04:47:43.139Z,43.35
2022-10-02T04:50:31.019Z,52.13
2022-10-02T04:53:38.148Z,67.18
2022-10-02T04:56:29.804Z,53.65
2022-10-02T04:59:21.044Z,53.30
2022-10-02T05:02:15.650Z,52.13
2022-10-02T05:05:04.236Z,45.58
2022-10-02T05:07:57.893Z,42.33
2022-10-02T05:10:42.432Z,43.85
2022-10-02T05:13:37.061Z,60.50
2022-10-02T05:16:32.928Z,66.20
2022-10-02T05:19:37.006Z,74.78
2022-10-02T05:22:40.792Z,74.97
2022-10-02T05:25:19.371Z,93.32
2022-10-02T05:28:13.483Z,62.97
2022-10-02T05:31:25.830Z,76.85
2022-10-02T05:34:19.861Z,81.10
2022-10-02T05:36:59.543Z,63.05
2022-10-02T05:39:42.455Z,64.50
2022-10-02T05:42:31.969Z,79.75
2022-10-02T05:45:25.417Z,75.43
2022-10-02T05:48:01.406Z,71.63
2022-10-02T05:50:34.226Z,79.45
2022-10-02T05:53:24.139Z,80.32
2022-10-02T05:55:58.809Z,88.78
2022-10-02T05:58:37.628Z,87.80
2022-10-02T06:01:07.476Z,74.18
2022-10-02T06:03:44.095Z,85.45
2022-10-02T06:06:26.414Z,96.82
2022-10-02T06:09:03.267Z,85.93
2022-10-02T06:11:40.084Z,104.13
2022-10-02T06:14:32.072Z,85.43
2022-10-02T06:17:01.545Z,92.35
2022-10-02T06:19:44.816Z,90.80
2022-10-02T06:22:18.862Z,84.95
2022-10-02T06:24:53.638Z,87.95
2022-10-02T06:27:38.304Z,85.60
2022-10-02T06:30:09.482Z,89.53
2022-10-02T06:32:51.447Z,92.47
2022-10-02T06:35:33.233Z,91.47
2022-10-02T06:38:04.741Z,83.45
2022-10-02T06:40:42.666Z,101.53
2022-10-02T06:43:09.357Z,112.07
2022-10-02T06:46:02.325Z,96.43
2022-10-02T06:48:52.897Z,87.72
2022-10-02T06:51:42.660Z,114.55
2022-10-02T06:54:29.302Z,97.30
2022-10-02T06:57:20.731Z,94.85
2022-10-02T07:00:16.422Z,100.80
2022-10-02T07:03:06.509Z,98.22
2022-10-02T07:05:54.238Z,77.63
2022-10-02T07:08:32.833Z,101.47
2022-10-02T07:11:14.610Z,84.50
2022-10-02T07:13:44.364Z,86.78
2022-10-02T07:16:23.600Z,86.97
2022-10-02T07:19:20.939Z,87.70
2022-10-02T07:22:43.968Z,77.68
2022-10-02T07:25:28.738Z,86.40
2022-10-02T07:28:18.551Z,72.43
2022-10-02T07:30:57.880Z,72.18
2022-10-02T07:33:48.786Z,78.72
2022-10-02T07:36:39.285Z,83.28
2022-10-02T07:39:42.009Z,87.78
2022-10-02T07:42:26.739Z,79.03
2022-10-02T07:45:21.584Z,68.55
2022-10-02T07:47:58.927Z,70.77
2022-10-02T07:50:46.429Z,82.10
2022-10-02T07:53:28.981Z,72.90
2022-10-02T07:55:56.728Z,76.10
2022-10-02T07:58:34.532Z,69.93
2022-10-02T08:01:05.814Z,67.22
2022-10-02T08:03:39.246Z,70.38
2022-10-02T08:06:06.913Z,69.57
2022-10-02T08:09:05.896Z,56.40
2022-10-02T08:11:38.814Z,65.93
2022-10-02T08:14:11.420Z,60.85
2022-10-02T08:16:48.851Z,65.93
2022-10-02T08:19:29.811Z,58.53
2022-10-02T08:22:00.838Z,55.85
2022-10-02T08:24:50.248Z,74.45
2022-10-02T08:27:24.473Z,57.67
2022-10-02T08:30:02.200Z,67.13
2022-10-02T08:32:34.899Z,57.03
2022-10-02T08:35:11.509Z,75.95
2022-10-02T08:38:12.300Z,63.53
2022-10-02T08:41:11.213Z,57.97
2022-10-02T08:44:06.208Z,59.13
2022-10-02T08:46:58.459Z,51.40
2022-10-02T08:49:37.145Z,49.58
2022-10-02T08:52:34.288Z,47.55
2022-10-02T08:55:19.270Z,46.47
2022-10-02T08:58:23.097Z,64.10
2022-10-02T09:00:58.063Z,57.45
2022-10-02T09:04:03.920Z,51.38
2022-10-02T09:06:45.627Z,47.03
2022-10-02T09:09:40.815Z,44.20
2022-10-02T09:12:26.733Z,40.10
2022-10-02T09:15:07.574Z,35.83
2022-10-02T09:17:46.979Z,28.80
2022-10-02T09:20:42.344Z,27.77
2022-10-02T09:23:38.285Z,34.85
2022-10-02T09:26:19.886Z,31.15
2022-10-02T09:29:42.115Z,34.55
2022-10-02T09:32:50.986Z,32.75
2022-10-02T09:35:24.373Z,31.08
2022-10-02T09:38:29.595Z,37.22
2022-10-02T09:41:42.942Z,47.67
2022-10-02T09:44:16.840Z,42.47
2022-10-02T09:47:02.831Z,39.67
2022-10-02T09:49:57.395Z,38.38
2022-10-02T09:52:50.176Z,44.13
2022-10-02T09:55:22.634Z,46.80
2022-10-02T09:58:20.234Z,37.97
2022-10-02T10:01:28.649Z,43.22
2022-10-02T10:03:58.093Z,45.53
2022-10-02T10:06:47.119Z,43.55
2022-10-02T10:09:35.101Z,35.80
2022-10-02T10:12:49.303Z,46.80
2022-10-02T10:15:19.804Z,44.70
2022-10-02T10:18:11.227Z,41.33
2022-10-02T10:21:00.768Z,38.13
2022-10-02T10:23:52.799Z,40.47
2022-10-02T10:26:46.729Z,35.38
2022-10-02T10:29:45.264Z,28.40
2022-10-02T10:32:51.130Z,27.60
2022-10-02T10:35:25.745Z,24.90
2022-10-02T10:38:32.787Z,29.42
2022-10-02T10:41:29.428Z,27.45
2022-10-02T10:44:33.749Z,27.95
2022-10-02T10:47:22.426Z,30.38
2022-10-02T10:50:17.411Z,22.38
2022-10-02T10:52:56.307Z,27.63
2022-10-02T10:55:59.594Z,26.20
2022-10-02T10:58:47.755Z,29.58
2022-10-02T11:01:18.713Z,31.00
2022-10-02T11:04:27.437Z,27.40
2022-10-02T11:07:15.481Z,31.83
2022-10-02T11:09:57.382Z,27.90
2022-10-02T11:12:39.091Z,23.15
2022-10-02T11:15:20.769Z,30.55
2022-10-02T11:18:00.703Z,35.72
2022-10-02T11:20:52.160Z,28.85
2022-10-02T11:23:56.411Z,31.50
2022-10-02T11:26:30.882Z,19.75
2022-10-02T11:29:40.081Z,23.73
2022-10-02T11:32:20.800Z,22.58
2022-10-02T11:35:03.717Z,20.98
2022-10-02T11:37:45.424Z,25.50
2022-10-02T11:40:41.892Z,22.85
2022-10-02T11:43:46.548Z,24.33
2022-10-02T11:46:25.397Z,24.70
2022-10-02T11:49:10.132Z,23.00
2022-10-02T11:51:53.836Z,23.75
2022-10-02T11:54:35.169Z,22.70
2022-10-02T11:57:08.795Z,23.58
2022-10-02T12:00:04.887Z,22.00
2022-10-02T12:02:42.148Z,21.38
2022-10-02T12:05:21.658Z,23.42
2022-10-02T12:08:14.801Z,23.40
2022-10-02T12:11:11.885Z,24.23
2022-10-02T12:14:02.915Z,24.90
2022-10-02T12:16:48.616Z,23.23
2022-10-02T12:19:39.965Z,24.60
2022-10-02T12:22:40.582Z,24.83
2022-10-02T12:25:59.081Z,24.83
2022-10-02T12:28:45.744Z,24.27
2022-10-02T12:31:19.012Z,25.00
2022-10-02T12:34:14.249Z,23.48
2022-10-02T12:36:56.385Z,24.23
2022-10-02T12:39:52.764Z,25.13
2022-10-02T12:42:50.003Z,23.58
2022-10-02T12:45:58.616Z,23.05
2022-10-02T12:48:45.883Z,23.52
2022-10-02T12:51:46.482Z,25.10
2022-10-02T12:54:35.017Z,24.83
2022-10-02T12:57:43.478Z,23.52
2022-10-02T13:00:16.220Z,23.50
2022-10-02T13:03:21.077Z,23.60
2022-10-02T13:06:06.790Z,25.00
2022-10-02T13:08:48.154Z,23.65
2022-10-02T13:11:38.487Z,24.50
2022-10-02T13:14:25.069Z,22.77
2022-10-02T13:17:09.705Z,24.58
2022-10-02T13:19:46.398Z,23.60
2022-10-02T13:22:39.936Z,24.50
2022-10-02T13:25:49.039Z,24.92
2022-10-02T13:28:49.842Z,22.95
2022-10-02T13:31:27.741Z,22.95
2022-10-02T13:34:18.321Z,22.63
2022-10-02T13:37:02.661Z,23.38
2022-10-02T13:39:59.315Z,21.73
2022-10-02T13:42:51.450Z,23.05
2022-10-02T13:45:27.060Z,22.38
2022-10-02T13:47:59.649Z,23.15
2022-10-02T13:50:50.125Z,22.75
2022-10-02T13:53:31.560Z,21.75
2022-10-02T13:56:22.577Z,21.42
2022-10-02T13:58:57.472Z,23.33
2022-10-02T14:01:53.899Z,21.70
2022-10-02T14:04:30.757Z,22.85
2022-10-02T14:07:17.800Z,21.77
2022-10-02T14:09:54.621Z,22.75
2022-10-02T14:12:39.798Z,22.20
2022-10-02T14:15:15.681Z,23.10
2022-10-02T14:18:16.961Z,23.25
2022-10-02T14:20:56.305Z,22.02
2022-10-02T14:23:34.899Z,21.83
2022-10-02T14:26:51.938Z,19.98
2022-10-02T14:29:37.091Z,21.45
2022-10-02T14:32:15.709Z,21.65
2022-10-02T14:35:12.246Z,23.88
2022-10-02T14:38:10.047Z,22.50
2022-10-02T14:40:55.969Z,21.95
2022-10-02T14:43:54.440Z,23.30
2022-10-02T14:46:29.023Z,22.00
2022-10-02T14:49:10.829Z,22.70
2022-10-02T14:52:09.912Z,21.10
2022-10-02T14:54:49.150Z,20.27
2022-10-02T14:57:27.234Z,20.25
2022-10-02T15:00:16.922Z,20.73
2022-10-02T15:03:31.682Z,21.20
2022-10-02T15:06:21.656Z,20.67
2022-10-02T15:08:57.056Z,20.17
2022-10-02T15:11:51.695Z,20.85
2022-10-02T15:14:50.302Z,21.50
2022-10-02T15:17:55.533Z,21.58
2022-10-02T15:20:25.976Z,20.85
2022-10-02T15:23:13.149Z,20.58
2022-10-02T15:26:11.176Z,21.10
2022-10-02T15:29:29.446Z,20.98
2022-10-02T15:32:29.204Z,20.70
2022-10-02T15:35:23.211Z,21.02
2022-10-02T15:38:01.595Z,21.33
2022-10-02T15:40:38.344Z,19.08
2022-10-02T15:43:11.976Z,20.83
2022-10-02T15:46:03.490Z,20.35
2022-10-02T15:49:01.186Z,19.83
2022-10-02T15:52:04.929Z,20.83
2022-10-02T15:54:46.041Z,19.92
2022-10-02T15:57:29.080Z,19.08
2022-10-02T16:00:03.812Z,18.58
2022-10-02T16:03:02.656Z,19.00
2022-10-02T16:05:47.460Z,19.75
2022-10-02T16:08:27.353Z,21.00
2022-10-02T16:11:25.710Z,18.73
2022-10-02T16:14:01.683Z,19.40
2022-10-02T16:17:05.935Z,19.08
2022-10-02T16:20:09.733Z,19.77
2022-10-02T16:22:56.922Z,19.90
2022-10-02T16:25:48.298Z,21.02
2022-10-02T16:28:46.851Z,19.50
2022-10-02T16:31:29.843Z,21.13
2022-10-02T16:34:15.704Z,19.20
2022-10-02T16:36:51.509Z,19.55
2022-10-02T16:39:24.009Z,19.55
2022-10-02T16:42:12.697Z,19.40
2022-10-02T16:44:48.214Z,19.00
2022-10-02T16:47:35.659Z,18.80
2022-10-02T16:50:16.348Z,19.88
2022-10-02T16:52:53.814Z,19.88
2022-10-02T16:55:34.662Z,18.20
2022-10-02T16:58:26.223Z,17.88
2022-10-02T17:01:02.128Z,17.02
2022-10-02T17:03:41.456Z,15.95
2022-10-02T17:06:26.976Z,17.08
2022-10-02T17:09:17.117Z,18.60
2022-10-02T17:12:23.497Z,19.75
2022-10-02T17:15:17.056Z,18.45
2022-10-02T17:17:51.651Z,18.35
2022-10-02T17:20:20.571Z,25.15
2022-10-02T17:23:11.909Z,19.60
2022-10-02T17:26:07.237Z,20.40
2022-10-02T17:28:57.204Z,18.70
2022-10-02T17:31:56.465Z,19.17
2022-10-02T17:34:31.659Z,19.73
2022-10-02T17:37:09.676Z,20.20
2022-10-02T17:39:44.089Z,19.00
2022-10-02T17:42:22.486Z,19.40
2022-10-02T17:44:54.597Z,21.52
2022-10-02T17:47:59.583Z,18.85
2022-10-02T17:50:34.030Z,17.52
2022-10-02T17:53:36.823Z,18.30
2022-10-02T17:56:51.848Z,19.08
2022-10-02T17:59:58.111Z,18.50
2022-10-02T18:02:46.319Z,17.95
2022-10-02T18:05:43.145Z,26.58
2022-10-02T18:08:46.237Z,19.65
2022-10-02T18:11:34.435Z,19.75
2022-10-02T18:14:24.777Z,20.10
2022-10-02T18:17:12.562Z,19.13
2022-10-02T18:19:42.756Z,20.90
2022-10-02T18:22:38.214Z,17.95
2022-10-02T18:25:29.752Z,18.30
2022-10-02T18:28:27.360Z,18.33
2022-10-02T18:31:12.933Z,19.15
2022-10-02T18:36:52.425Z,24.25
2022-10-02T18:39:40.755Z,17.67
2022-10-02T18:42:16.640Z,19.13
2022-10-02T18:44:51.362Z,19.50
2022-10-02T18:47:41.931Z,18.20
2022-10-02T18:50:27.828Z,20.58
2022-10-02T18:53:32.671Z,19.20
2022-10-02T18:56:08.610Z,18.67
2022-10-02T18:59:13.792Z,17.67
2022-10-02T19:01:56.589Z,18.35
2022-10-02T19:04:30.577Z,18.38
2022-10-02T19:07:16.465Z,21.40
2022-10-02T19:09:43.411Z,16.65
2022-10-02T19:12:24.782Z,19.00
2022-10-02T19:14:55.964Z,18.50
2022-10-02T19:17:27.988Z,24.13
2022-10-02T19:19:55.713Z,22.33
2022-10-02T19:22:30.310Z,21.60
2022-10-02T19:25:16.203Z,17.75
2022-10-02T19:27:49.697Z,17.67
2022-10-02T19:30:26.184Z,21.05
2022-10-02T19:32:58.724Z,19.67
2022-10-02T19:35:32.269Z,17.85
2022-10-02T19:38:07.623Z,27.85
2022-10-02T19:40:36.125Z,23.60
2022-10-02T19:43:16.285Z,23.95
2022-10-02T19:45:48.369Z,17.35
2022-10-02T19:48:18.613Z,20.65
2022-10-02T19:50:51.250Z,20.77
2022-10-02T19:53:38.944Z,25.35
2022-10-02T19:56:15.521Z,19.60
2022-10-02T19:58:45.304Z,21.60
2022-10-02T20:01:20.422Z,23.88
2022-10-02T20:03:50.274Z,22.27
2022-10-02T20:06:21.812Z,21.05
2022-10-02T20:09:05.523Z,23.17
2022-10-02T20:11:38.945Z,22.45
2022-10-02T20:14:21.248Z,22.35
2022-10-02T20:17:09.773Z,19.52
2022-10-02T20:19:45.057Z,20.83
2022-10-02T20:22:34.402Z,19.30
2022-10-02T20:25:10.960Z,17.02
2022-10-02T20:27:42.054Z,17.25
2022-10-02T20:30:17.772Z,20.17
2022-10-02T20:33:02.355Z,15.30
2022-10-02T20:35:40.083Z,22.63
2022-10-02T20:38:19.877Z,23.95
2022-10-02T20:40:53.019Z,15.98
2022-10-02T20:43:24.667Z,25.45
2022-10-02T20:46:20.171Z,17.55
2022-10-02T20:49:11.793Z,16.45
2022-10-02T20:52:14.996Z,20.42
2022-10-02T20:54:53.926Z,21.95
2022-10-02T20:58:00.845Z,25.63
2022-10-02T21:00:38.683Z,17.45
2022-10-02T21:03:22.663Z,19.73
2022-10-02T21:06:26.506Z,18.63
2022-10-02T21:09:25.165Z,18.48
2022-10-02T21:12:27.905Z,21.05
2022-10-02T21:15:09.713Z,25.60
2022-10-02T21:18:10.966Z,23.95
2022-10-02T21:20:51.221Z,18.45
2022-10-02T21:24:14.072Z,26.08
2022-10-02T21:27:02.168Z,22.25
2022-10-02T21:29:31.970Z,18.00
2022-10-02T21:32:43.189Z,17.23
2022-10-02T21:35:36.138Z,21.92
2022-10-02T21:38:27.923Z,21.42
2022-10-02T21:41:04.103Z,26.13
2022-10-02T21:44:04.982Z,23.30
2022-10-02T21:46:54.527Z,24.70
2022-10-02T21:49:43.075Z,20.48
2022-10-02T21:52:25.748Z,14.70
2022-10-02T21:55:26.829Z,18.38
2022-10-02T21:58:17.692Z,21.50
2022-10-02T22:01:15.385Z,19.38
2022-10-02T22:04:00.142Z,21.98
2022-10-02T22:06:36.547Z,24.90
2022-10-02T22:09:29.102Z,26.67
2022-10-02T22:12:20.587Z,25.35
2022-10-02T22:15:06.517Z,17.95
2022-10-02T22:17:57.410Z,23.00
2022-10-02T22:21:00.981Z,21.27
2022-10-02T22:23:48.762Z,20.08
2022-10-02T22:26:52.114Z,21.83
2022-10-02T22:29:27.255Z,15.10
2022-10-02T22:32:34.785Z,19.75
2022-10-02T22:35:07.480Z,18.00
2022-10-02T22:37:40.012Z,21.30
2022-10-02T22:40:14.016Z,25.92
2022-10-02T22:42:52.644Z,20.15
2022-10-02T22:45:26.537Z,26.45
2022-10-02T22:48:03.963Z,23.48
2022-10-02T22:50:39.709Z,18.50
2022-10-02T22:53:24.250Z,26.45
2022-10-02T22:55:53.999Z,17.45
2022-10-02T22:58:23.357Z,26.45
2022-10-02T23:01:08.166Z,22.30
2022-10-02T23:03:43.892Z,25.52
2022-10-02T23:06:50.211Z,15.48
2022-10-02T23:09:38.374Z,21.27
2022-10-02T23:12:15.088Z,19.42
2022-10-02T23:14:56.531Z,22.88
2022-10-02T23:17:36.839Z,24.48
2022-10-02T23:20:23.191Z,17.80
2022-10-02T23:22:56.114Z,26.92
2022-10-02T23:25:37.654Z,16.60
2022-10-02T23:28:36.433Z,23.90
2022-10-02T23:31:15.309Z,18.55
2022-10-02T23:33:50.954Z,24.42
2022-10-02T23:36:30.900Z,16.67
2022-10-02T23:39:09.600Z,25.40
2022-10-02T23:41:47.042Z,22.80
2022-10-02T23:44:41.412Z,13.27
2022-10-02T23:47:14.724Z,20.90
2022-10-02T23:49:52.280Z,23.20
2022-10-02T23:52:29.989Z,24.00
2022-10-02T23:55:06.170Z,28.75
2022-10-02T23:57:54.265Z,25.92
